sensor_id;sensor_type;location;lat;lon;timestamp;P1;durP1;ratioP1;P2;durP2;ratioP2
60851;SDS011;48553;50.766;2.900;2022-12-20T00:02:20;13.55;;;6.18;;
60851;SDS011;48553;50.766;2.900;2022-12-20T00:05:20;11.13;;;5.45;;
60851;SDS011;48553;50.766;2.900;2022-12-20T00:08:21;11.02;;;5.70;;
60851;SDS011;48553;50.766;2.900;2022-12-20T00:11:21;11.82;;;5.68;;
60851;SDS011;48553;50.766;2.900;2022-12-20T00:14:22;12.07;;;5.30;;
60851;SDS011;48553;50.766;2.900;2022-12-20T00:17:22;10.77;;;5.25;;
60851;SDS011;48553;50.766;2.900;2022-12-20T00:20:23;12.38;;;5.45;;
60851;SDS011;48553;50.766;2.900;2022-12-20T00:23:24;14.30;;;5.50;;
60851;SDS011;48553;50.766;2.900;2022-12-20T00:26:26;10.82;;;5.20;;
60851;SDS011;48553;50.766;2.900;2022-12-20T00:29:29;11.02;;;5.40;;
60851;SDS011;48553;50.766;2.900;2022-12-20T00:32:29;13.70;;;5.30;;
60851;SDS011;48553;50.766;2.900;2022-12-20T00:35:29;11.65;;;5.05;;
60851;SDS011;48553;50.766;2.900;2022-12-20T00:38:30;9.63;;;5.25;;
60851;SDS011;48553;50.766;2.900;2022-12-20T00:41:31;9.60;;;4.95;;
60851;SDS011;48553;50.766;2.900;2022-12-20T00:44:33;10.82;;;5.38;;
60851;SDS011;48553;50.766;2.900;2022-12-20T00:47:33;9.77;;;4.70;;
60851;SDS011;48553;50.766;2.900;2022-12-20T00:50:34;9.65;;;5.15;;
60851;SDS011;48553;50.766;2.900;2022-12-20T00:53:34;11.25;;;5.03;;
60851;SDS011;48553;50.766;2.900;2022-12-20T00:56:35;8.27;;;4.97;;
60851;SDS011;48553;50.766;2.900;2022-12-20T00:59:36;10.00;;;4.90;;
60851;SDS011;48553;50.766;2.900;2022-12-20T01:02:36;10.38;;;5.38;;
60851;SDS011;48553;50.766;2.900;2022-12-20T01:05:37;12.68;;;5.03;;
60851;SDS011;48553;50.766;2.900;2022-12-20T01:08:38;10.93;;;5.07;;
60851;SDS011;48553;50.766;2.900;2022-12-20T01:11:39;10.52;;;4.95;;
60851;SDS011;48553;50.766;2.900;2022-12-20T01:14:39;9.90;;;4.88;;
60851;SDS011;48553;50.766;2.900;2022-12-20T01:17:40;11.95;;;5.00;;
60851;SDS011;48553;50.766;2.900;2022-12-20T01:20:40;10.52;;;4.93;;
60851;SDS011;48553;50.766;2.900;2022-12-20T01:23:41;9.90;;;5.13;;
60851;SDS011;48553;50.766;2.900;2022-12-20T01:26:42;8.43;;;4.22;;
60851;SDS011;48553;50.766;2.900;2022-12-20T01:29:43;12.35;;;4.78;;
60851;SDS011;48553;50.766;2.900;2022-12-20T01:32:43;10.07;;;4.68;;
60851;SDS011;48553;50.766;2.900;2022-12-20T01:35:56;10.93;;;4.90;;
60851;SDS011;48553;50.766;2.900;2022-12-20T01:38:59;8.30;;;4.13;;
60851;SDS011;48553;50.766;2.900;2022-12-20T01:42:01;9.15;;;4.50;;
60851;SDS011;48553;50.766;2.900;2022-12-20T01:45:02;8.40;;;4.22;;
60851;SDS011;48553;50.766;2.900;2022-12-20T01:48:13;9.30;;;3.97;;
60851;SDS011;48553;50.766;2.900;2022-12-20T01:51:17;9.55;;;4.40;;
60851;SDS011;48553;50.766;2.900;2022-12-20T01:54:20;9.93;;;4.75;;
60851;SDS011;48553;50.766;2.900;2022-12-20T01:57:30;9.70;;;4.45;;
60851;SDS011;48553;50.766;2.900;2022-12-20T02:00:35;10.77;;;4.50;;
60851;SDS011;48553;50.766;2.900;2022-12-20T02:03:36;8.32;;;4.22;;
60851;SDS011;48553;50.766;2.900;2022-12-20T02:06:36;9.63;;;4.72;;
60851;SDS011;48553;50.766;2.900;2022-12-20T02:09:37;10.07;;;4.75;;
60851;SDS011;48553;50.766;2.900;2022-12-20T02:12:39;8.40;;;4.38;;
60851;SDS011;48553;50.766;2.900;2022-12-20T02:15:54;10.05;;;4.72;;
60851;SDS011;48553;50.766;2.900;2022-12-20T02:18:58;8.80;;;4.50;;
60851;SDS011;48553;50.766;2.900;2022-12-20T02:22:14;13.23;;;4.95;;
60851;SDS011;48553;50.766;2.900;2022-12-20T02:28:56;8.82;;;4.80;;
60851;SDS011;48553;50.766;2.900;2022-12-20T02:32:03;8.07;;;4.53;;
60851;SDS011;48553;50.766;2.900;2022-12-20T02:35:24;8.15;;;4.18;;
60851;SDS011;48553;50.766;2.900;2022-12-20T02:38:28;10.93;;;4.95;;
60851;SDS011;48553;50.766;2.900;2022-12-20T02:41:35;10.90;;;4.53;;
60851;SDS011;48553;50.766;2.900;2022-12-20T02:48:04;10.70;;;4.53;;
60851;SDS011;48553;50.766;2.900;2022-12-20T02:51:07;11.07;;;4.72;;
60851;SDS011;48553;50.766;2.900;2022-12-20T02:54:09;11.05;;;5.10;;
60851;SDS011;48553;50.766;2.900;2022-12-20T02:57:18;9.82;;;5.13;;
60851;SDS011;48553;50.766;2.900;2022-12-20T03:00:23;11.93;;;5.03;;
60851;SDS011;48553;50.766;2.900;2022-12-20T03:03:24;11.52;;;5.20;;
60851;SDS011;48553;50.766;2.900;2022-12-20T03:06:25;9.90;;;4.70;;
60851;SDS011;48553;50.766;2.900;2022-12-20T03:09:26;10.15;;;5.32;;
60851;SDS011;48553;50.766;2.900;2022-12-20T03:12:27;8.50;;;4.72;;
60851;SDS011;48553;50.766;2.900;2022-12-20T03:15:28;11.60;;;5.43;;
60851;SDS011;48553;50.766;2.900;2022-12-20T03:18:28;8.80;;;4.40;;
60851;SDS011;48553;50.766;2.900;2022-12-20T03:21:28;10.57;;;5.30;;
60851;SDS011;48553;50.766;2.900;2022-12-20T03:24:29;8.90;;;4.85;;
60851;SDS011;48553;50.766;2.900;2022-12-20T03:27:31;10.65;;;4.72;;
60851;SDS011;48553;50.766;2.900;2022-12-20T03:30:32;9.98;;;5.22;;
60851;SDS011;48553;50.766;2.900;2022-12-20T03:33:32;9.02;;;4.85;;
60851;SDS011;48553;50.766;2.900;2022-12-20T03:36:32;11.38;;;5.00;;
60851;SDS011;48553;50.766;2.900;2022-12-20T03:39:33;7.65;;;4.38;;
60851;SDS011;48553;50.766;2.900;2022-12-20T03:42:34;9.75;;;4.97;;
60851;SDS011;48553;50.766;2.900;2022-12-20T03:45:34;10.38;;;5.43;;
60851;SDS011;48553;50.766;2.900;2022-12-20T03:48:35;11.20;;;4.95;;
60851;SDS011;48553;50.766;2.900;2022-12-20T03:51:35;12.25;;;5.50;;
60851;SDS011;48553;50.766;2.900;2022-12-20T03:54:36;9.57;;;5.13;;
60851;SDS011;48553;50.766;2.900;2022-12-20T03:57:36;11.55;;;5.43;;
60851;SDS011;48553;50.766;2.900;2022-12-20T04:00:37;11.32;;;5.47;;
60851;SDS011;48553;50.766;2.900;2022-12-20T04:03:37;10.45;;;4.93;;
60851;SDS011;48553;50.766;2.900;2022-12-20T04:06:38;11.32;;;5.15;;
60851;SDS011;48553;50.766;2.900;2022-12-20T04:09:38;11.07;;;5.43;;
60851;SDS011;48553;50.766;2.900;2022-12-20T04:12:39;10.77;;;5.30;;
60851;SDS011;48553;50.766;2.900;2022-12-20T04:15:39;10.80;;;5.45;;
60851;SDS011;48553;50.766;2.900;2022-12-20T04:18:39;11.18;;;5.63;;
60851;SDS011;48553;50.766;2.900;2022-12-20T04:21:40;11.88;;;5.32;;
60851;SDS011;48553;50.766;2.900;2022-12-20T04:24:40;9.95;;;4.75;;
60851;SDS011;48553;50.766;2.900;2022-12-20T04:27:41;9.00;;;4.75;;
60851;SDS011;48553;50.766;2.900;2022-12-20T04:30:41;11.15;;;5.00;;
60851;SDS011;48553;50.766;2.900;2022-12-20T04:33:42;11.05;;;4.75;;
60851;SDS011;48553;50.766;2.900;2022-12-20T04:36:42;8.82;;;4.72;;
60851;SDS011;48553;50.766;2.900;2022-12-20T04:39:42;10.32;;;4.80;;
60851;SDS011;48553;50.766;2.900;2022-12-20T04:42:43;9.52;;;4.78;;
60851;SDS011;48553;50.766;2.900;2022-12-20T04:45:43;11.45;;;5.03;;
60851;SDS011;48553;50.766;2.900;2022-12-20T04:48:46;11.85;;;4.90;;
60851;SDS011;48553;50.766;2.900;2022-12-20T04:51:46;9.02;;;4.78;;
60851;SDS011;48553;50.766;2.900;2022-12-20T04:54:47;8.57;;;4.40;;
60851;SDS011;48553;50.766;2.900;2022-12-20T04:57:47;13.05;;;4.88;;
60851;SDS011;48553;50.766;2.900;2022-12-20T05:00:48;11.18;;;4.90;;
60851;SDS011;48553;50.766;2.900;2022-12-20T05:03:48;8.40;;;4.40;;
60851;SDS011;48553;50.766;2.900;2022-12-20T05:06:48;10.52;;;5.00;;
60851;SDS011;48553;50.766;2.900;2022-12-20T05:09:49;8.13;;;4.40;;
60851;SDS011;48553;50.766;2.900;2022-12-20T05:12:49;10.65;;;4.90;;
60851;SDS011;48553;50.766;2.900;2022-12-20T05:15:50;11.38;;;4.57;;
60851;SDS011;48553;50.766;2.900;2022-12-20T05:18:52;10.30;;;4.43;;
60851;SDS011;48553;50.766;2.900;2022-12-20T05:21:52;8.80;;;4.40;;
60851;SDS011;48553;50.766;2.900;2022-12-20T05:25:11;10.90;;;4.72;;
60851;SDS011;48553;50.766;2.900;2022-12-20T05:28:31;9.18;;;4.30;;
60851;SDS011;48553;50.766;2.900;2022-12-20T05:31:32;9.75;;;4.60;;
60851;SDS011;48553;50.766;2.900;2022-12-20T05:34:32;10.05;;;4.45;;
60851;SDS011;48553;50.766;2.900;2022-12-20T05:37:33;9.88;;;4.78;;
60851;SDS011;48553;50.766;2.900;2022-12-20T05:40:33;10.80;;;4.90;;
60851;SDS011;48553;50.766;2.900;2022-12-20T05:43:34;9.55;;;4.30;;
60851;SDS011;48553;50.766;2.900;2022-12-20T05:46:35;9.18;;;4.60;;
60851;SDS011;48553;50.766;2.900;2022-12-20T05:49:35;7.82;;;4.30;;
60851;SDS011;48553;50.766;2.900;2022-12-20T05:52:35;10.93;;;4.55;;
60851;SDS011;48553;50.766;2.900;2022-12-20T05:55:36;8.48;;;4.35;;
60851;SDS011;48553;50.766;2.900;2022-12-20T05:58:39;8.70;;;4.60;;
60851;SDS011;48553;50.766;2.900;2022-12-20T06:01:39;8.18;;;4.07;;
60851;SDS011;48553;50.766;2.900;2022-12-20T06:04:40;8.65;;;4.47;;
60851;SDS011;48553;50.766;2.900;2022-12-20T06:07:40;9.60;;;4.43;;
60851;SDS011;48553;50.766;2.900;2022-12-20T06:10:40;7.75;;;4.25;;
60851;SDS011;48553;50.766;2.900;2022-12-20T06:13:41;8.10;;;4.43;;
60851;SDS011;48553;50.766;2.900;2022-12-20T06:16:41;8.48;;;4.10;;
60851;SDS011;48553;50.766;2.900;2022-12-20T06:19:42;8.90;;;4.32;;
60851;SDS011;48553;50.766;2.900;2022-12-20T06:22:42;9.07;;;4.32;;
60851;SDS011;48553;50.766;2.900;2022-12-20T06:25:44;8.68;;;4.30;;
60851;SDS011;48553;50.766;2.900;2022-12-20T06:28:44;9.57;;;3.90;;
60851;SDS011;48553;50.766;2.900;2022-12-20T06:31:48;8.85;;;4.13;;
60851;SDS011;48553;50.766;2.900;2022-12-20T06:34:49;7.25;;;3.95;;
60851;SDS011;48553;50.766;2.900;2022-12-20T06:37:50;9.20;;;4.05;;
60851;SDS011;48553;50.766;2.900;2022-12-20T06:40:50;11.98;;;4.30;;
60851;SDS011;48553;50.766;2.900;2022-12-20T06:43:50;9.15;;;3.85;;
60851;SDS011;48553;50.766;2.900;2022-12-20T06:46:51;8.93;;;4.50;;
60851;SDS011;48553;50.766;2.900;2022-12-20T06:49:51;11.85;;;4.47;;
60851;SDS011;48553;50.766;2.900;2022-12-20T06:52:52;8.95;;;4.50;;
60851;SDS011;48553;50.766;2.900;2022-12-20T06:55:52;8.77;;;4.20;;
60851;SDS011;48553;50.766;2.900;2022-12-20T06:58:52;10.27;;;4.40;;
60851;SDS011;48553;50.766;2.900;2022-12-20T07:01:53;9.73;;;4.53;;
60851;SDS011;48553;50.766;2.900;2022-12-20T07:04:53;7.95;;;4.13;;
60851;SDS011;48553;50.766;2.900;2022-12-20T07:07:54;7.68;;;3.92;;
60851;SDS011;48553;50.766;2.900;2022-12-20T07:10:54;9.98;;;4.50;;
60851;SDS011;48553;50.766;2.900;2022-12-20T07:13:56;11.05;;;4.93;;
60851;SDS011;48553;50.766;2.900;2022-12-20T07:16:56;11.25;;;4.55;;
60851;SDS011;48553;50.766;2.900;2022-12-20T07:19:57;10.32;;;4.40;;
60851;SDS011;48553;50.766;2.900;2022-12-20T07:22:57;9.30;;;4.47;;
60851;SDS011;48553;50.766;2.900;2022-12-20T07:25:58;8.95;;;4.47;;
60851;SDS011;48553;50.766;2.900;2022-12-20T07:29:00;9.25;;;4.68;;
60851;SDS011;48553;50.766;2.900;2022-12-20T07:32:01;7.75;;;4.18;;
60851;SDS011;48553;50.766;2.900;2022-12-20T07:35:02;7.95;;;4.32;;
60851;SDS011;48553;50.766;2.900;2022-12-20T07:38:02;11.35;;;4.57;;
60851;SDS011;48553;50.766;2.900;2022-12-20T07:41:09;10.45;;;4.40;;
60851;SDS011;48553;50.766;2.900;2022-12-20T07:44:11;14.40;;;4.90;;
60851;SDS011;48553;50.766;2.900;2022-12-20T07:47:12;7.70;;;4.13;;
60851;SDS011;48553;50.766;2.900;2022-12-20T07:50:12;8.30;;;4.05;;
60851;SDS011;48553;50.766;2.900;2022-12-20T07:53:13;9.88;;;4.40;;
60851;SDS011;48553;50.766;2.900;2022-12-20T07:56:13;10.20;;;4.10;;
60851;SDS011;48553;50.766;2.900;2022-12-20T07:59:16;11.10;;;4.55;;
60851;SDS011;48553;50.766;2.900;2022-12-20T08:02:21;11.80;;;4.82;;
60851;SDS011;48553;50.766;2.900;2022-12-20T08:05:26;8.80;;;4.10;;
60851;SDS011;48553;50.766;2.900;2022-12-20T08:08:27;10.02;;;4.50;;
60851;SDS011;48553;50.766;2.900;2022-12-20T08:11:31;10.18;;;4.03;;
60851;SDS011;48553;50.766;2.900;2022-12-20T08:14:33;8.80;;;4.20;;
60851;SDS011;48553;50.766;2.900;2022-12-20T08:17:34;11.10;;;4.57;;
60851;SDS011;48553;50.766;2.900;2022-12-20T08:20:34;9.27;;;4.32;;
60851;SDS011;48553;50.766;2.900;2022-12-20T08:23:34;10.30;;;4.13;;
60851;SDS011;48553;50.766;2.900;2022-12-20T08:26:38;8.52;;;4.13;;
60851;SDS011;48553;50.766;2.900;2022-12-20T08:29:39;12.30;;;4.57;;
60851;SDS011;48553;50.766;2.900;2022-12-20T08:32:40;9.45;;;4.07;;
60851;SDS011;48553;50.766;2.900;2022-12-20T08:35:40;9.10;;;4.18;;
60851;SDS011;48553;50.766;2.900;2022-12-20T08:38:41;9.57;;;4.07;;
60851;SDS011;48553;50.766;2.900;2022-12-20T08:41:41;8.07;;;4.35;;
60851;SDS011;48553;50.766;2.900;2022-12-20T08:44:41;10.00;;;4.30;;
60851;SDS011;48553;50.766;2.900;2022-12-20T08:47:43;9.30;;;4.13;;
60851;SDS011;48553;50.766;2.900;2022-12-20T08:50:43;9.02;;;4.10;;
60851;SDS011;48553;50.766;2.900;2022-12-20T08:53:44;7.85;;;4.40;;
60851;SDS011;48553;50.766;2.900;2022-12-20T08:56:44;8.18;;;4.53;;
60851;SDS011;48553;50.766;2.900;2022-12-20T08:59:45;8.73;;;3.90;;
60851;SDS011;48553;50.766;2.900;2022-12-20T09:02:45;10.27;;;3.88;;
60851;SDS011;48553;50.766;2.900;2022-12-20T09:05:47;9.68;;;4.30;;
60851;SDS011;48553;50.766;2.900;2022-12-20T09:08:48;10.00;;;4.07;;
60851;SDS011;48553;50.766;2.900;2022-12-20T09:11:48;9.13;;;4.28;;
60851;SDS011;48553;50.766;2.900;2022-12-20T09:14:49;7.72;;;4.10;;
60851;SDS011;48553;50.766;2.900;2022-12-20T09:17:49;10.10;;;4.10;;
60851;SDS011;48553;50.766;2.900;2022-12-20T09:20:49;8.80;;;3.97;;
60851;SDS011;48553;50.766;2.900;2022-12-20T09:23:51;6.68;;;4.10;;
60851;SDS011;48553;50.766;2.900;2022-12-20T09:29:55;8.37;;;3.80;;
60851;SDS011;48553;50.766;2.900;2022-12-20T09:32:56;8.75;;;4.00;;
60851;SDS011;48553;50.766;2.900;2022-12-20T09:35:57;9.77;;;4.38;;
60851;SDS011;48553;50.766;2.900;2022-12-20T09:38:58;9.68;;;4.30;;
60851;SDS011;48553;50.766;2.900;2022-12-20T09:41:59;8.30;;;4.15;;
60851;SDS011;48553;50.766;2.900;2022-12-20T09:45:05;10.23;;;4.07;;
60851;SDS011;48553;50.766;2.900;2022-12-20T09:48:12;12.48;;;4.35;;
60851;SDS011;48553;50.766;2.900;2022-12-20T09:54:53;9.32;;;4.13;;
60851;SDS011;48553;50.766;2.900;2022-12-20T09:58:13;10.60;;;4.10;;
60851;SDS011;48553;50.766;2.900;2022-12-20T10:01:38;7.45;;;4.00;;
60851;SDS011;48553;50.766;2.900;2022-12-20T10:07:52;9.05;;;3.97;;
60851;SDS011;48553;50.766;2.900;2022-12-20T10:10:58;9.35;;;4.05;;
60851;SDS011;48553;50.766;2.900;2022-12-20T10:18:16;10.88;;;4.32;;
60851;SDS011;48553;50.766;2.900;2022-12-20T10:20:57;10.43;;;4.47;;
60851;SDS011;48553;50.766;2.900;2022-12-20T10:24:12;11.75;;;4.22;;
60851;SDS011;48553;50.766;2.900;2022-12-20T10:27:15;11.45;;;4.43;;
60851;SDS011;48553;50.766;2.900;2022-12-20T10:30:18;10.13;;;4.55;;
60851;SDS011;48553;50.766;2.900;2022-12-20T10:33:21;10.60;;;4.43;;
60851;SDS011;48553;50.766;2.900;2022-12-20T10:39:38;10.00;;;5.15;;
60851;SDS011;48553;50.766;2.900;2022-12-20T10:42:41;10.50;;;4.47;;
60851;SDS011;48553;50.766;2.900;2022-12-20T10:45:43;10.10;;;4.38;;
60851;SDS011;48553;50.766;2.900;2022-12-20T10:48:54;11.35;;;5.05;;
60851;SDS011;48553;50.766;2.900;2022-12-20T10:51:55;9.48;;;4.47;;
60851;SDS011;48553;50.766;2.900;2022-12-20T10:55:01;9.43;;;4.40;;
60851;SDS011;48553;50.766;2.900;2022-12-20T10:58:02;10.82;;;4.72;;
60851;SDS011;48553;50.766;2.900;2022-12-20T11:01:27;10.70;;;4.20;;
60851;SDS011;48553;50.766;2.900;2022-12-20T11:04:34;10.25;;;4.30;;
60851;SDS011;48553;50.766;2.900;2022-12-20T11:07:35;9.98;;;4.30;;
60851;SDS011;48553;50.766;2.900;2022-12-20T11:10:38;11.43;;;5.05;;
60851;SDS011;48553;50.766;2.900;2022-12-20T11:13:39;9.25;;;4.75;;
60851;SDS011;48553;50.766;2.900;2022-12-20T11:16:40;7.97;;;4.40;;
60851;SDS011;48553;50.766;2.900;2022-12-20T11:32:41;10.18;;;5.07;;
60851;SDS011;48553;50.766;2.900;2022-12-20T11:36:25;9.77;;;4.53;;
60851;SDS011;48553;50.766;2.900;2022-12-20T11:50:49;10.48;;;4.97;;
60851;SDS011;48553;50.766;2.900;2022-12-20T11:53:51;8.68;;;4.60;;
60851;SDS011;48553;50.766;2.900;2022-12-20T11:57:03;8.23;;;4.63;;
60851;SDS011;48553;50.766;2.900;2022-12-20T12:00:13;12.30;;;4.80;;
60851;SDS011;48553;50.766;2.900;2022-12-20T12:03:18;10.93;;;4.70;;
60851;SDS011;48553;50.766;2.900;2022-12-20T12:06:28;9.10;;;4.70;;
60851;SDS011;48553;50.766;2.900;2022-12-20T12:09:39;9.10;;;4.72;;
60851;SDS011;48553;50.766;2.900;2022-12-20T12:12:51;10.82;;;4.43;;
60851;SDS011;48553;50.766;2.900;2022-12-20T12:16:11;8.23;;;4.45;;
60851;SDS011;48553;50.766;2.900;2022-12-20T12:19:18;7.32;;;4.40;;
60851;SDS011;48553;50.766;2.900;2022-12-20T12:22:22;8.95;;;4.50;;
60851;SDS011;48553;50.766;2.900;2022-12-20T12:25:31;9.70;;;4.35;;
60851;SDS011;48553;50.766;2.900;2022-12-20T12:28:31;8.52;;;4.25;;
60851;SDS011;48553;50.766;2.900;2022-12-20T12:42:08;10.02;;;4.38;;
60851;SDS011;48553;50.766;2.900;2022-12-20T12:45:23;8.23;;;3.90;;
60851;SDS011;48553;50.766;2.900;2022-12-20T12:48:30;8.00;;;4.28;;
60851;SDS011;48553;50.766;2.900;2022-12-20T12:54:36;8.15;;;4.60;;
60851;SDS011;48553;50.766;2.900;2022-12-20T12:57:54;7.95;;;4.38;;
60851;SDS011;48553;50.766;2.900;2022-12-20T13:01:00;7.32;;;3.97;;
60851;SDS011;48553;50.766;2.900;2022-12-20T13:04:07;9.77;;;4.88;;
60851;SDS011;48553;50.766;2.900;2022-12-20T13:13:30;9.55;;;4.80;;
60851;SDS011;48553;50.766;2.900;2022-12-20T13:16:30;9.05;;;4.53;;
60851;SDS011;48553;50.766;2.900;2022-12-20T13:19:33;8.98;;;4.60;;
60851;SDS011;48553;50.766;2.900;2022-12-20T13:22:35;9.07;;;4.57;;
60851;SDS011;48553;50.766;2.900;2022-12-20T13:28:43;8.70;;;4.55;;
60851;SDS011;48553;50.766;2.900;2022-12-20T13:31:45;7.22;;;4.47;;
60851;SDS011;48553;50.766;2.900;2022-12-20T13:34:52;8.15;;;4.43;;
60851;SDS011;48553;50.766;2.900;2022-12-20T13:37:56;12.18;;;4.72;;
60851;SDS011;48553;50.766;2.900;2022-12-20T13:41:18;9.95;;;5.07;;
60851;SDS011;48553;50.766;2.900;2022-12-20T13:44:33;8.65;;;4.43;;
60851;SDS011;48553;50.766;2.900;2022-12-20T13:47:41;9.57;;;4.82;;
60851;SDS011;48553;50.766;2.900;2022-12-20T13:50:52;10.75;;;4.93;;
60851;SDS011;48553;50.766;2.900;2022-12-20T13:53:57;11.23;;;5.25;;
60851;SDS011;48553;50.766;2.900;2022-12-20T13:57:02;12.60;;;4.95;;
60851;SDS011;48553;50.766;2.900;2022-12-20T14:00:05;9.90;;;4.82;;
60851;SDS011;48553;50.766;2.900;2022-12-20T14:06:25;9.38;;;5.40;;
60851;SDS011;48553;50.766;2.900;2022-12-20T14:12:36;9.73;;;5.40;;
60851;SDS011;48553;50.766;2.900;2022-12-20T14:15:43;12.00;;;5.43;;
60851;SDS011;48553;50.766;2.900;2022-12-20T14:18:50;10.77;;;5.95;;
60851;SDS011;48553;50.766;2.900;2022-12-20T14:22:00;11.35;;;5.53;;
60851;SDS011;48553;50.766;2.900;2022-12-20T14:25:01;11.82;;;5.70;;
60851;SDS011;48553;50.766;2.900;2022-12-20T14:28:04;9.65;;;5.35;;
60851;SDS011;48553;50.766;2.900;2022-12-20T14:34:33;10.65;;;5.43;;
60851;SDS011;48553;50.766;2.900;2022-12-20T14:37:37;8.85;;;5.63;;
60851;SDS011;48553;50.766;2.900;2022-12-20T14:40:40;11.50;;;5.57;;
60851;SDS011;48553;50.766;2.900;2022-12-20T14:43:41;10.73;;;5.78;;
60851;SDS011;48553;50.766;2.900;2022-12-20T14:46:46;11.27;;;5.57;;
60851;SDS011;48553;50.766;2.900;2022-12-20T14:49:48;11.65;;;6.35;;
60851;SDS011;48553;50.766;2.900;2022-12-20T14:52:54;11.02;;;5.93;;
60851;SDS011;48553;50.766;2.900;2022-12-20T14:55:55;11.63;;;6.53;;
60851;SDS011;48553;50.766;2.900;2022-12-20T14:59:04;11.75;;;6.60;;
60851;SDS011;48553;50.766;2.900;2022-12-20T15:02:26;10.48;;;7.28;;
60851;SDS011;48553;50.766;2.900;2022-12-20T15:08:54;12.40;;;7.35;;
60851;SDS011;48553;50.766;2.900;2022-12-20T15:11:55;12.73;;;6.57;;
60851;SDS011;48553;50.766;2.900;2022-12-20T15:14:57;10.95;;;6.70;;
60851;SDS011;48553;50.766;2.900;2022-12-20T15:17:58;9.98;;;6.35;;
60851;SDS011;48553;50.766;2.900;2022-12-20T15:20:59;11.95;;;6.65;;
60851;SDS011;48553;50.766;2.900;2022-12-20T15:24:05;11.52;;;6.57;;
60851;SDS011;48553;50.766;2.900;2022-12-20T15:27:14;11.43;;;6.30;;
60851;SDS011;48553;50.766;2.900;2022-12-20T15:30:15;12.95;;;6.28;;
60851;SDS011;48553;50.766;2.900;2022-12-20T15:33:20;11.43;;;6.53;;
60851;SDS011;48553;50.766;2.900;2022-12-20T15:36:24;10.20;;;6.68;;
60851;SDS011;48553;50.766;2.900;2022-12-20T15:39:26;11.15;;;6.25;;
60851;SDS011;48553;50.766;2.900;2022-12-20T15:42:26;14.02;;;7.00;;
60851;SDS011;48553;50.766;2.900;2022-12-20T15:45:27;10.55;;;6.68;;
60851;SDS011;48553;50.766;2.900;2022-12-20T15:48:27;13.65;;;7.03;;
60851;SDS011;48553;50.766;2.900;2022-12-20T15:51:35;13.85;;;7.07;;
60851;SDS011;48553;50.766;2.900;2022-12-20T15:54:36;13.73;;;7.30;;
60851;SDS011;48553;50.766;2.900;2022-12-20T15:57:37;12.55;;;7.15;;
60851;SDS011;48553;50.766;2.900;2022-12-20T16:00:38;12.93;;;7.47;;
60851;SDS011;48553;50.766;2.900;2022-12-20T16:03:42;12.97;;;7.70;;
60851;SDS011;48553;50.766;2.900;2022-12-20T16:06:42;14.68;;;7.85;;
60851;SDS011;48553;50.766;2.900;2022-12-20T16:09:45;13.85;;;7.95;;
60851;SDS011;48553;50.766;2.900;2022-12-20T16:12:45;13.80;;;7.90;;
60851;SDS011;48553;50.766;2.900;2022-12-20T16:15:46;12.68;;;8.05;;
60851;SDS011;48553;50.766;2.900;2022-12-20T16:18:46;16.50;;;8.82;;
60851;SDS011;48553;50.766;2.900;2022-12-20T16:21:48;15.48;;;8.50;;
60851;SDS011;48553;50.766;2.900;2022-12-20T16:24:50;15.27;;;8.57;;
60851;SDS011;48553;50.766;2.900;2022-12-20T16:27:50;14.30;;;8.73;;
60851;SDS011;48553;50.766;2.900;2022-12-20T16:30:51;14.40;;;8.40;;
60851;SDS011;48553;50.766;2.900;2022-12-20T16:33:52;14.10;;;8.73;;
60851;SDS011;48553;50.766;2.900;2022-12-20T16:36:53;14.52;;;8.63;;
60851;SDS011;48553;50.766;2.900;2022-12-20T16:39:54;18.13;;;9.45;;
60851;SDS011;48553;50.766;2.900;2022-12-20T16:42:55;17.38;;;9.68;;
60851;SDS011;48553;50.766;2.900;2022-12-20T16:45:57;16.23;;;8.85;;
60851;SDS011;48553;50.766;2.900;2022-12-20T16:48:58;16.75;;;9.85;;
60851;SDS011;48553;50.766;2.900;2022-12-20T16:51:59;16.60;;;10.45;;
60851;SDS011;48553;50.766;2.900;2022-12-20T16:55:00;19.25;;;11.23;;
60851;SDS011;48553;50.766;2.900;2022-12-20T16:58:00;20.30;;;11.70;;
60851;SDS011;48553;50.766;2.900;2022-12-20T17:01:00;20.55;;;11.82;;
60851;SDS011;48553;50.766;2.900;2022-12-20T17:04:01;20.27;;;12.20;;
60851;SDS011;48553;50.766;2.900;2022-12-20T17:07:02;23.30;;;12.20;;
60851;SDS011;48553;50.766;2.900;2022-12-20T17:10:03;24.42;;;13.80;;
60851;SDS011;48553;50.766;2.900;2022-12-20T17:13:03;22.63;;;13.13;;
60851;SDS011;48553;50.766;2.900;2022-12-20T17:16:04;24.38;;;13.02;;
60851;SDS011;48553;50.766;2.900;2022-12-20T17:19:05;26.30;;;13.55;;
60851;SDS011;48553;50.766;2.900;2022-12-20T17:22:05;24.65;;;13.13;;
60851;SDS011;48553;50.766;2.900;2022-12-20T17:25:12;25.67;;;13.80;;
60851;SDS011;48553;50.766;2.900;2022-12-20T17:28:18;25.92;;;13.55;;
60851;SDS011;48553;50.766;2.900;2022-12-20T17:31:21;26.42;;;13.70;;
60851;SDS011;48553;50.766;2.900;2022-12-20T17:34:27;23.85;;;13.20;;
60851;SDS011;48553;50.766;2.900;2022-12-20T17:37:29;22.83;;;13.15;;
60851;SDS011;48553;50.766;2.900;2022-12-20T17:40:29;27.02;;;13.63;;
60851;SDS011;48553;50.766;2.900;2022-12-20T17:43:30;26.27;;;14.07;;
60851;SDS011;48553;50.766;2.900;2022-12-20T17:46:30;23.67;;;12.95;;
60851;SDS011;48553;50.766;2.900;2022-12-20T17:49:31;27.33;;;13.73;;
60851;SDS011;48553;50.766;2.900;2022-12-20T17:52:32;23.70;;;13.15;;
60851;SDS011;48553;50.766;2.900;2022-12-20T17:55:32;25.55;;;13.25;;
60851;SDS011;48553;50.766;2.900;2022-12-20T17:58:34;23.80;;;12.38;;
60851;SDS011;48553;50.766;2.900;2022-12-20T18:01:34;24.02;;;12.88;;
60851;SDS011;48553;50.766;2.900;2022-12-20T18:04:35;22.58;;;12.32;;
60851;SDS011;48553;50.766;2.900;2022-12-20T18:07:35;23.02;;;12.63;;
60851;SDS011;48553;50.766;2.900;2022-12-20T18:10:35;21.90;;;12.35;;
60851;SDS011;48553;50.766;2.900;2022-12-20T18:13:37;21.90;;;12.00;;
60851;SDS011;48553;50.766;2.900;2022-12-20T18:19:41;21.63;;;11.63;;
60851;SDS011;48553;50.766;2.900;2022-12-20T18:22:42;21.42;;;11.98;;
60851;SDS011;48553;50.766;2.900;2022-12-20T18:25:43;20.52;;;11.82;;
60851;SDS011;48553;50.766;2.900;2022-12-20T18:28:44;22.30;;;11.88;;
60851;SDS011;48553;50.766;2.900;2022-12-20T18:31:46;20.60;;;11.80;;
60851;SDS011;48553;50.766;2.900;2022-12-20T18:34:46;22.60;;;12.45;;
60851;SDS011;48553;50.766;2.900;2022-12-20T18:37:47;21.17;;;12.10;;
60851;SDS011;48553;50.766;2.900;2022-12-20T18:40:48;22.55;;;11.82;;
60851;SDS011;48553;50.766;2.900;2022-12-20T18:43:49;22.42;;;12.13;;
60851;SDS011;48553;50.766;2.900;2022-12-20T18:46:50;20.45;;;11.88;;
60851;SDS011;48553;50.766;2.900;2022-12-20T18:49:50;22.90;;;12.55;;
60851;SDS011;48553;50.766;2.900;2022-12-20T18:52:51;21.10;;;11.98;;
60851;SDS011;48553;50.766;2.900;2022-12-20T18:55:51;21.98;;;12.20;;
60851;SDS011;48553;50.766;2.900;2022-12-20T18:58:52;24.48;;;12.68;;
60851;SDS011;48553;50.766;2.900;2022-12-20T19:01:52;22.30;;;12.70;;
60851;SDS011;48553;50.766;2.900;2022-12-20T19:04:53;23.92;;;13.02;;
60851;SDS011;48553;50.766;2.900;2022-12-20T19:07:53;28.00;;;13.35;;
60851;SDS011;48553;50.766;2.900;2022-12-20T19:10:57;26.63;;;12.75;;
60851;SDS011;48553;50.766;2.900;2022-12-20T19:13:59;22.55;;;12.60;;
60851;SDS011;48553;50.766;2.900;2022-12-20T19:16:59;23.52;;;12.50;;
60851;SDS011;48553;50.766;2.900;2022-12-20T19:20:00;24.08;;;13.18;;
60851;SDS011;48553;50.766;2.900;2022-12-20T19:23:00;28.63;;;12.75;;
60851;SDS011;48553;50.766;2.900;2022-12-20T19:26:02;24.77;;;12.40;;
60851;SDS011;48553;50.766;2.900;2022-12-20T19:29:04;26.00;;;12.85;;
60851;SDS011;48553;50.766;2.900;2022-12-20T19:32:05;25.80;;;12.32;;
60851;SDS011;48553;50.766;2.900;2022-12-20T19:35:05;26.02;;;12.88;;
60851;SDS011;48553;50.766;2.900;2022-12-20T19:38:06;26.67;;;12.30;;